Terminal Aerodrome Forecast
Issued by NWS

Home | Current Version | Previous Version | Text Only | Print | Product List | Glossary Off
Versions: 1 2 3 4 5 6 7 8 9 10 11 12 13 14

000
FTUS45 KGGW 010200 AAB
TAFSDY
TAF AMD
KSDY 010210Z 0102/0124 VRB06KT P6SM FEW250
     FM011500 23011KT P6SM FEW220
      AMD LTD TO CLD VIS AND WIND=

USA.gov is the U.S. government's official web portal to all federal, state and local government web resources and services.